Time;durP1;ratioP1;P1;durP2;ratioP2;P2;SDS_P1;SDS_P2;PMS_P1;PMS_P2;Temp;Humidity;BMP_temperature;BMP_pressure;BME280_temperature;BME280_humidity;BME280_pressure;Samples;Min_cycle;Max_cycle;Signal;HPM_P1;HPM_P2
2021/12/06 00:00:43;;;;;;;6.88;3.45;;;5.60;99.90;;;5.41;86.12;100460.06;5207864;28;20046;-73
2021/12/06 00:03:26;;;;;;;7.00;3.42;;;5.60;99.90;;;5.40;86.21;100459.19;5207672;28;20059;-73
2021/12/06 00:05:58;;;;;;;6.57;3.00;;;5.60;99.90;;;5.38;86.49;100459.94;5207045;28;20422;-73
2021/12/06 00:08:31;;;;;;;8.23;3.60;;;5.50;99.90;;;5.35;85.83;100464.97;5207488;28;20045;-73
2021/12/06 00:11:08;;;;;;;8.02;3.95;;;5.50;99.90;;;5.33;86.67;100466.56;5207548;28;20769;-72
2021/12/06 00:13:43;;;;;;;8.48;3.25;;;5.50;99.90;;;5.31;86.52;100473.38;5207473;28;20056;-73
2021/12/06 00:16:22;;;;;;;6.30;3.22;;;5.50;99.90;;;5.28;86.95;100473.19;5207573;28;20059;-72
2021/12/06 00:18:54;;;;;;;6.85;3.15;;;5.40;99.90;;;5.23;86.98;100478.16;5207562;28;20053;-74
2021/12/06 00:21:27;;;;;;;6.10;3.67;;;5.40;99.90;;;5.20;86.88;100479.69;5207231;28;20064;-74
2021/12/06 00:23:59;;;;;;;7.00;3.00;;;5.40;99.90;;;5.16;86.84;100476.94;5206751;28;20522;-72
2021/12/06 00:26:31;;;;;;;5.82;3.35;;;5.30;99.90;;;5.14;87.41;100483.72;5207264;28;20052;-72
2021/12/06 00:29:04;;;;;;;5.15;3.13;;;5.30;99.90;;;5.11;87.31;100470.66;5206147;28;20112;-72
2021/12/06 00:31:38;;;;;;;6.07;3.53;;;5.30;99.90;;;5.10;87.84;100475.75;5207272;28;20490;-71
2021/12/06 00:34:15;;;;;;;8.38;3.50;;;5.20;99.90;;;5.08;87.70;100473.06;5206817;28;20065;-73
2021/12/06 00:36:54;;;;;;;5.60;3.22;;;5.30;99.90;;;5.06;87.58;100478.97;5207227;28;20049;-73
2021/12/06 00:39:26;;;;;;;6.03;3.58;;;5.30;99.90;;;4.99;87.08;100480.34;5207116;28;20062;-75
2021/12/06 00:41:59;;;;;;;9.20;4.63;;;5.20;99.90;;;4.92;87.35;100482.53;5206613;28;20187;-73
2021/12/06 00:44:31;;;;;;;7.07;3.33;;;5.10;99.90;;;4.84;87.11;100479.56;5206749;28;20053;-73
2021/12/06 00:47:05;;;;;;;9.07;3.50;;;5.10;99.90;;;4.78;87.42;100484.41;5206553;28;20474;-73
2021/12/06 00:49:38;;;;;;;7.25;3.40;;;5.00;99.90;;;4.72;87.35;100484.06;5206923;28;20045;-73
2021/12/06 00:52:10;;;;;;;7.63;3.92;;;4.90;99.90;;;4.66;87.23;100483.75;5206454;28;20049;-73
2021/12/06 00:54:43;;;;;;;8.57;4.18;;;4.90;99.90;;;4.60;87.45;100495.53;5206512;28;20398;-73
2021/12/06 00:57:15;;;;;;;7.45;3.38;;;4.80;99.90;;;4.54;87.40;100502.03;5206272;28;20049;-72
2021/12/06 00:59:48;;;;;;;5.95;3.10;;;4.80;99.90;;;4.49;87.60;100506.94;5206693;28;20056;-72
2021/12/06 01:02:21;;;;;;;8.00;3.38;;;4.70;99.90;;;4.43;87.81;100506.63;5206595;28;20042;-72
2021/12/06 01:04:53;;;;;;;6.55;2.85;;;4.70;99.90;;;4.37;87.78;100506.31;5206007;28;20045;-73
2021/12/06 01:07:25;;;;;;;7.45;3.35;;;4.60;99.90;;;4.32;87.66;100502.59;5206462;28;20075;-73
2021/12/06 01:09:57;;;;;;;6.13;3.05;;;4.60;99.90;;;4.26;87.68;100509.97;5206071;28;20141;-73
2021/12/06 01:12:29;;;;;;;6.78;3.55;;;4.50;99.90;;;4.18;87.71;100519.88;5206090;28;20049;-73
2021/12/06 01:15:02;;;;;;;6.88;2.95;;;4.40;99.90;;;4.08;87.81;100522.72;5205709;28;20486;-74
2021/12/06 01:17:35;;;;;;;6.68;3.00;;;4.40;99.90;;;4.03;87.96;100534.47;5205761;28;20041;-73
2021/12/06 01:20:12;;;;;;;5.38;3.15;;;4.30;99.90;;;3.93;88.23;100538.25;5205613;28;20383;-72
2021/12/06 01:22:49;;;;;;;8.00;3.53;;;4.20;99.90;;;3.84;88.20;100537.69;5205759;28;20065;-73
2021/12/06 01:25:30;;;;;;;9.52;3.28;;;4.10;99.90;;;3.77;88.46;100541.59;5205767;28;20049;-72
2021/12/06 01:28:58;;;;;;;6.43;3.45;;;4.10;99.90;;;3.72;88.77;100537.03;5192260;28;20045;-71
2021/12/06 01:31:39;;;;;;;8.55;3.08;;;4.00;99.90;;;3.65;89.13;100545.16;5193228;28;20595;-73
2021/12/06 01:39:55;;;;;;;6.32;3.10;;;3.80;99.90;;;3.43;89.04;100569.69;5195277;28;20071;-73
2021/12/06 01:42:27;;;;;;;7.63;2.75;;;3.70;99.90;;;3.37;89.39;100571.00;5195749;28;20056;-73
2021/12/06 01:45:00;;;;;;;9.55;3.88;;;3.70;99.90;;;3.33;89.12;100579.38;5195277;28;20413;-72
2021/12/06 01:47:35;;;;;;;9.20;3.88;;;3.60;99.90;;;3.28;89.41;100579.09;5196066;28;20054;-72
2021/12/06 01:50:18;;;;;;;7.35;3.78;;;3.60;99.90;;;3.25;89.94;100584.91;5194693;28;20045;-72
2021/12/06 01:52:54;;;;;;;6.63;3.22;;;3.50;99.90;;;3.30;90.97;100590.38;5195846;28;20504;-72
2021/12/06 01:55:29;;;;;;;8.20;3.80;;;3.60;99.90;;;3.29;91.43;100583.44;5195116;28;20060;-72
2021/12/06 01:58:04;;;;;;;8.13;3.63;;;3.60;99.90;;;3.27;91.57;100582.47;5194290;28;20041;-73
2021/12/06 02:00:39;;;;;;;;;;;3.60;99.90;;;3.28;91.59;100578.19;5193329;28;20050;-72
2021/12/06 02:03:12;;;;;;;5.82;3.08;;;3.60;99.90;;;3.27;91.32;100572.16;5195460;28;19920;-72
2021/12/06 02:05:49;;;;;;;5.85;3.03;;;3.60;99.90;;;3.25;91.35;100571.16;5194137;28;20052;-73
2021/12/06 02:08:21;;;;;;;7.72;3.45;;;3.60;99.90;;;3.23;91.29;100575.34;5194820;28;20041;-72
2021/12/06 02:10:59;;;;;;;8.13;3.72;;;3.60;99.90;;;3.21;91.71;100582.09;5202095;28;20055;-73
2021/12/06 02:13:39;;;;;;;5.45;3.40;;;3.50;99.90;;;3.13;91.74;100583.28;5205450;28;20508;-72
2021/12/06 02:16:11;;;;;;;6.75;3.17;;;3.50;99.90;;;3.07;91.45;100583.84;5204807;28;20065;-73
2021/12/06 02:18:48;;;;;;;6.85;3.22;;;3.50;99.90;;;3.06;91.34;100588.88;5205042;28;20076;-73
2021/12/06 02:21:29;;;;;;;5.10;3.20;;;3.50;99.90;;;3.05;91.21;100594.81;5205507;28;20049;-72
2021/12/06 02:24:09;;;;;;;9.63;3.40;;;3.40;99.90;;;2.98;90.78;100586.72;5204986;28;20057;-73
2021/12/06 02:26:45;;;;;;;5.28;3.17;;;3.30;99.90;;;2.92;90.80;100601.78;5205296;28;20049;-72
2021/12/06 02:29:17;;;;;;;5.50;3.35;;;3.30;99.90;;;2.85;90.48;100607.34;5204882;28;20123;-72
2021/12/06 02:31:49;;;;;;;6.65;3.05;;;3.20;99.90;;;2.77;90.33;100618.84;5205101;28;20053;-73
2021/12/06 02:34:21;;;;;;;7.22;3.10;;;3.10;99.90;;;2.70;90.28;100624.41;5204728;28;20046;-72
2021/12/06 02:36:55;;;;;;;5.25;3.00;;;3.10;99.90;;;2.65;90.24;100634.41;5205168;28;20169;-72
2021/12/06 02:39:29;;;;;;;8.48;3.30;;;3.00;99.90;;;2.62;90.10;100628.19;5205010;28;20045;-72
2021/12/06 02:42:02;;;;;;;6.95;3.17;;;3.00;99.90;;;2.59;90.25;100622.84;5205181;28;20140;-72
2021/12/06 02:44:34;;;;;;;7.78;3.30;;;2.90;99.90;;;2.58;90.67;100621.94;5204758;28;20140;-72
2021/12/06 02:47:06;;;;;;;7.10;3.15;;;2.90;99.90;;;2.57;90.56;100624.44;5204844;28;20046;-72
2021/12/06 02:49:38;;;;;;;7.15;3.45;;;2.90;99.90;;;2.54;90.40;100627.69;5204836;28;20409;-72
2021/12/06 02:52:12;;;;;;;7.57;3.75;;;2.90;99.90;;;2.54;90.20;100634.50;5206841;28;20052;-72
2021/12/06 02:54:49;;;;;;;6.82;3.28;;;2.80;99.90;;;2.52;90.67;100618.09;5208911;28;20450;-73
2021/12/06 02:57:32;;;;;;;10.00;3.78;;;2.80;99.90;;;2.53;90.74;100622.44;5209266;28;20045;-71
2021/12/06 03:00:09;;;;;;;8.98;3.45;;;2.80;99.90;;;2.52;90.78;100626.69;5209162;28;20045;-73
2021/12/06 03:02:41;;;;;;;6.82;2.78;;;2.80;99.90;;;2.50;90.43;100630.88;5208817;28;20053;-74
2021/12/06 03:05:13;;;;;;;8.77;3.55;;;2.80;99.90;;;2.49;91.38;100630.78;5208320;28;20060;-72
2021/12/06 03:07:51;;;;;;;6.20;3.00;;;2.80;99.90;;;2.53;91.23;100632.72;5208231;28;20047;-73
2021/12/06 03:10:23;;;;;;;7.95;3.05;;;2.80;99.90;;;2.55;91.54;100641.47;5208667;28;20046;-73
2021/12/06 03:12:56;;;;;;;8.57;3.58;;;2.90;99.90;;;2.58;91.57;100637.38;5208853;28;20059;-72
2021/12/06 03:15:28;;;;;;;6.68;3.42;;;2.90;99.90;;;2.61;91.68;100641.84;5208425;28;20050;-73
2021/12/06 03:18:00;;;;;;;6.35;3.25;;;2.90;99.90;;;2.65;91.68;100659.25;5207428;28;20059;-73
2021/12/06 03:20:32;;;;;;;6.10;3.80;;;2.90;99.90;;;2.66;91.46;100661.91;5208900;28;20045;-74
2021/12/06 03:23:05;;;;;;;6.53;3.40;;;3.00;99.90;;;2.67;91.32;100665.38;5208468;28;20049;-74
2021/12/06 03:25:37;;;;;;;7.45;3.40;;;3.00;99.90;;;2.68;91.28;100659.47;5208398;28;20509;-73
2021/12/06 03:28:09;;;;;;;6.47;3.30;;;2.90;99.90;;;2.70;91.76;100663.03;5208693;28;20045;-72
2021/12/06 03:30:42;;;;;;;9.40;3.13;;;2.90;99.90;;;2.73;91.74;100663.19;5208723;28;20050;-72
2021/12/06 03:33:14;;;;;;;6.25;3.45;;;3.00;99.90;;;2.75;91.81;100661.63;5208631;28;20049;-72
2021/12/06 03:35:46;;;;;;;6.22;3.40;;;3.00;99.90;;;2.77;91.95;100665.19;5208192;28;20052;-72
2021/12/06 03:38:19;;;;;;;7.80;3.33;;;3.00;99.90;;;2.78;92.18;100666.97;5208287;28;20072;-72
2021/12/06 03:40:51;;;;;;;7.72;3.53;;;3.00;99.90;;;2.81;92.47;100672.31;5208388;28;20068;-72
2021/12/06 03:43:23;;;;;;;6.38;3.65;;;3.10;99.90;;;2.86;92.60;100667.44;5208580;28;20072;-73
2021/12/06 03:45:55;;;;;;;7.40;3.67;;;3.10;99.90;;;2.87;92.38;100667.56;5208640;28;20045;-73
2021/12/06 03:48:27;;;;;;;7.90;3.45;;;3.10;99.90;;;2.92;92.36;100663.56;5208938;28;20050;-72
2021/12/06 03:51:00;;;;;;;7.95;3.50;;;3.10;99.90;;;2.94;92.31;100667.16;5209137;28;20053;-71
2021/12/06 03:53:34;;;;;;;7.53;3.47;;;3.20;99.90;;;2.95;92.42;100676.66;5208854;28;20387;-72
2021/12/06 03:56:07;;;;;;;8.32;2.95;;;3.20;99.90;;;2.95;91.94;100679.22;5207311;28;20050;-72
2021/12/06 03:58:39;;;;;;;6.47;2.95;;;3.20;99.90;;;2.94;91.98;100680.03;5207591;28;20649;-72
2021/12/06 04:01:13;;;;;;;6.45;3.33;;;3.20;99.90;;;2.94;92.04;100681.72;5207791;28;20053;-72
2021/12/06 04:03:47;;;;;;;5.97;3.25;;;3.20;99.90;;;2.93;92.10;100673.09;5206708;28;20056;-72
2021/12/06 04:06:19;;;;;;;6.28;2.83;;;3.20;99.90;;;2.93;92.03;100683.41;5207848;28;20477;-72
2021/12/06 04:08:53;;;;;;;6.22;3.08;;;3.20;99.90;;;2.92;91.73;100691.00;5207247;28;20045;-72
2021/12/06 04:11:25;;;;;;;6.38;3.20;;;3.20;99.90;;;2.90;91.77;100684.88;5207648;28;20049;-72
2021/12/06 04:13:58;;;;;;;6.60;3.03;;;3.20;99.90;;;2.85;91.78;100689.72;5206836;28;20084;-72
2021/12/06 04:16:30;;;;;;;6.10;3.17;;;3.20;99.90;;;2.84;91.75;100693.09;5205511;28;20049;-73
2021/12/06 04:19:02;;;;;;;5.70;2.95;;;3.10;99.90;;;2.82;91.73;100688.66;5207376;28;20510;-71
2021/12/06 04:21:35;;;;;;;5.82;3.28;;;3.10;99.90;;;2.78;92.01;100690.13;5207470;28;20397;-71
2021/12/06 04:24:10;;;;;;;7.13;3.78;;;3.10;99.90;;;2.75;92.09;100682.22;5206950;28;20050;-72
2021/12/06 04:26:42;;;;;;;8.43;3.40;;;3.00;99.90;;;2.71;91.73;100673.41;5207407;28;20046;-72
2021/12/06 04:29:15;;;;;;;7.80;3.53;;;3.00;99.90;;;2.68;91.50;100685.22;5206956;28;20052;-73
2021/12/06 04:31:50;;;;;;;7.00;3.78;;;3.00;99.90;;;2.63;91.46;100684.91;5207154;28;20049;-72
2021/12/06 04:34:23;;;;;;;7.70;3.42;;;2.90;99.90;;;2.59;91.42;100687.16;5206560;28;20049;-72
2021/12/06 04:36:55;;;;;;;5.93;3.58;;;2.90;99.90;;;2.51;91.70;100694.41;5207493;28;20051;-71
2021/12/06 04:39:29;;;;;;;7.65;3.35;;;2.80;99.90;;;2.44;91.55;100697.38;5207345;28;20053;-72
2021/12/06 04:42:01;;;;;;;7.90;3.42;;;2.80;99.90;;;2.36;91.50;100703.69;5207091;28;20562;-72
2021/12/06 04:44:33;;;;;;;10.50;4.20;;;2.70;99.90;;;2.30;91.42;100706.75;5206275;28;20046;-73
2021/12/06 04:47:07;;;;;;;6.90;3.28;;;2.60;99.90;;;2.25;91.65;100702.97;5207338;28;20387;-71
2021/12/06 04:49:39;;;;;;;8.45;3.95;;;2.60;99.90;;;2.24;91.46;100708.91;5206943;28;20056;-72
2021/12/06 04:52:15;;;;;;;7.57;4.07;;;2.50;99.90;;;2.24;92.06;100716.63;5206681;28;20049;-73
2021/12/06 04:54:53;;;;;;;8.98;3.70;;;2.50;99.90;;;2.23;92.50;100714.84;5206240;28;20049;-73
2021/12/06 04:57:32;;;;;;;10.90;4.43;;;2.50;99.90;;;2.27;92.58;100729.69;5206864;28;20063;-72
2021/12/06 05:00:14;;;;;;;10.80;4.15;;;2.60;99.90;;;2.32;92.69;100733.47;5206632;28;20049;-72
2021/12/06 05:02:46;;;;;;;9.63;4.40;;;2.60;99.90;;;2.37;92.82;100739.81;5206918;28;20072;-72
2021/12/06 05:05:25;;;;;;;11.32;3.78;;;2.70;99.90;;;2.43;93.29;100745.38;5206236;28;20045;-72
2021/12/06 05:08:01;;;;;;;10.80;4.25;;;2.70;99.90;;;2.48;93.47;100749.91;5206541;28;20053;-73
2021/12/06 05:10:35;;;;;;;10.85;4.35;;;2.80;99.90;;;2.54;93.46;100752.88;5206420;28;20068;-72
2021/12/06 05:13:07;;;;;;;7.88;4.20;;;2.80;99.90;;;2.58;93.45;100760.03;5206657;28;20144;-72
2021/12/06 05:15:39;;;;;;;8.25;4.03;;;2.80;99.90;;;2.61;93.54;100771.44;5205686;28;20045;-72
2021/12/06 05:18:12;;;;;;;6.70;4.03;;;2.90;99.90;;;2.64;93.58;100774.19;5206090;28;20648;-71
2021/12/06 05:20:44;;;;;;;7.55;3.92;;;2.90;99.90;;;2.65;93.59;100767.34;5206514;28;20045;-72
2021/12/06 05:23:16;;;;;;;8.05;3.50;;;2.90;99.90;;;2.63;93.32;100767.25;5206214;28;20056;-72
2021/12/06 05:25:51;;;;;;;9.40;3.88;;;3.00;99.90;;;2.65;93.30;100767.34;5205723;28;20046;-72
2021/12/06 05:28:58;;;;;;;10.20;3.53;;;3.00;99.90;;;2.71;93.58;100778.06;5219344;23;20056;-67
2021/12/06 05:31:33;;;;;;;9.75;3.75;;;3.00;99.90;;;2.74;93.33;100783.41;5202090;28;20467;-68
2021/12/06 05:34:10;;;;;;;8.05;3.72;;;3.00;99.90;;;2.78;93.32;100790.53;5206027;28;20461;-70
2021/12/06 05:36:43;;;;;;;8.20;3.45;;;3.10;99.90;;;2.81;93.42;100801.06;5205775;28;20139;-69
2021/12/06 05:39:16;;;;;;;7.80;4.15;;;3.00;99.90;;;2.80;93.48;100801.81;5205979;28;20400;-70
2021/12/06 05:41:49;;;;;;;6.70;3.53;;;3.10;99.90;;;2.83;93.31;100814.91;5206501;28;20530;-68
2021/12/06 05:44:21;;;;;;;7.97;3.95;;;3.10;99.90;;;2.86;93.30;100817.66;5205935;28;20080;-68
2021/12/06 05:46:54;;;;;;;10.68;5.45;;;3.10;99.90;;;2.90;93.43;100817.09;5205954;28;20151;-69
2021/12/06 05:49:27;;;;;;;9.18;4.57;;;3.20;99.90;;;2.95;93.51;100819.97;5205737;28;20046;-68
2021/12/06 05:51:59;;;;;;;10.43;3.80;;;3.20;99.90;;;2.99;93.50;100825.41;5205602;28;20136;-68
2021/12/06 05:54:32;;;;;;;21.95;9.32;;;3.20;99.90;;;3.01;93.43;100820.38;5205803;28;20109;-69
2021/12/06 05:57:08;;;;;;;17.77;8.48;;;3.30;99.90;;;3.00;93.72;100821.16;5205646;28;20109;-68
2021/12/06 05:59:41;;;;;;;12.13;5.82;;;3.30;99.90;;;2.97;93.60;100824.41;5206263;28;20426;-70
2021/12/06 06:02:14;;;;;;;12.40;6.00;;;3.30;99.90;;;2.98;93.71;100831.34;5205714;28;20062;-68
2021/12/06 06:04:46;;;;;;;12.75;5.85;;;3.30;99.90;;;2.98;94.20;100823.63;5205488;28;20061;-68
2021/12/06 06:07:18;;;;;;;10.90;5.82;;;3.30;99.90;;;3.03;94.18;100830.78;5205662;28;20486;-69
2021/12/06 06:09:50;;;;;;;9.52;4.22;;;3.30;99.90;;;3.07;94.07;100836.22;5205161;28;20096;-70
2021/12/06 06:12:23;;;;;;;9.00;4.13;;;3.40;99.90;;;3.09;94.03;100839.78;5205444;28;20067;-69
2021/12/06 06:14:55;;;;;;;10.05;5.10;;;3.40;99.90;;;3.13;93.90;100840.84;5205215;28;20050;-68
2021/12/06 06:17:29;;;;;;;7.57;4.13;;;3.40;99.90;;;3.14;94.18;100835.84;5205378;28;20141;-68
2021/12/06 06:20:01;;;;;;;12.82;5.95;;;3.40;99.90;;;3.18;93.93;100836.91;5205731;28;20126;-68
2021/12/06 06:22:35;;;;;;;12.38;5.50;;;3.50;99.90;;;3.21;93.85;100837.13;5205120;28;20057;-67
2021/12/06 06:25:08;;;;;;;13.52;5.90;;;3.50;99.90;;;3.23;93.83;100843.25;5205193;28;20132;-68
2021/12/06 06:27:41;;;;;;;11.27;5.25;;;3.50;99.90;;;3.24;94.15;100834.72;5204535;28;20060;-68
2021/12/06 06:30:15;;;;;;;13.45;5.68;;;3.50;99.90;;;3.26;94.37;100846.03;5205089;28;20049;-69
2021/12/06 06:32:47;;;;;;;14.70;6.10;;;3.50;99.90;;;3.26;94.39;100841.78;5205179;28;20398;-67
2021/12/06 06:35:20;;;;;;;14.18;6.50;;;3.50;99.90;;;3.26;94.66;100846.03;5204860;28;20053;-68
2021/12/06 06:37:53;;;;;;;16.48;6.57;;;3.50;99.90;;;3.29;94.47;100853.97;5205033;28;20049;-68
2021/12/06 06:40:25;;;;;;;12.10;5.70;;;3.50;99.90;;;3.32;94.97;100858.41;5205161;28;20071;-70
2021/12/06 06:42:59;;;;;;;16.77;6.70;;;3.60;99.90;;;3.31;94.58;100857.50;5204634;28;20049;-68
2021/12/06 06:45:32;;;;;;;17.80;6.65;;;3.60;99.90;;;3.37;94.75;100862.19;5205717;28;20045;-68
2021/12/06 06:48:04;;;;;;;13.95;6.95;;;3.60;99.90;;;3.40;94.94;100867.53;5205216;28;20049;-69
2021/12/06 06:50:37;;;;;;;15.10;7.25;;;3.60;99.90;;;3.41;95.01;100879.63;5205240;28;20046;-68
2021/12/06 06:53:09;;;;;;;14.18;6.30;;;3.60;99.90;;;3.43;95.05;100886.66;5205090;28;20045;-68
2021/12/06 06:55:41;;;;;;;20.50;8.43;;;3.70;99.90;;;3.43;94.96;100881.50;5205055;28;20053;-68
2021/12/06 06:58:14;;;;;;;19.23;9.70;;;3.70;99.90;;;3.44;95.07;100885.84;5204910;28;20415;-68
2021/12/06 07:00:46;;;;;;;17.05;7.78;;;3.70;99.90;;;3.48;95.01;100893.00;5205253;28;20041;-71
2021/12/06 07:03:19;;;;;;;19.65;7.63;;;3.70;99.90;;;3.50;94.92;100891.41;5205015;28;20085;-72
2021/12/06 07:05:51;;;;;;;16.13;6.35;;;3.70;99.90;;;3.53;95.15;100886.47;5205223;28;20049;-70
2021/12/06 07:08:23;;;;;;;16.17;6.65;;;3.80;99.90;;;3.56;95.05;100884.88;5205041;28;20136;-70
2021/12/06 07:10:55;;;;;;;17.23;6.57;;;3.80;99.90;;;3.56;94.97;100879.72;5204705;28;20046;-71
2021/12/06 07:13:29;;;;;;;16.63;6.07;;;3.80;99.90;;;3.52;95.02;100871.81;5204569;28;20052;-70
2021/12/06 07:16:03;;;;;;;18.17;8.13;;;3.80;99.90;;;3.48;95.07;100877.53;5204724;28;20471;-71
2021/12/06 07:18:36;;;;;;;23.10;10.15;;;3.80;99.90;;;3.39;95.57;100864.06;5204328;28;20053;-72
2021/12/06 07:21:08;;;;;;;17.05;7.88;;;3.80;99.90;;;3.34;96.09;100865.47;5204868;28;20056;-72
2021/12/06 07:23:41;;;;;;;23.75;10.48;;;3.70;99.90;;;3.33;96.19;100866.25;5204444;28;20065;-70
2021/12/06 07:26:17;;;;;;;24.17;8.20;;;3.70;99.90;;;3.34;96.05;100868.03;5204580;28;20060;-70
2021/12/06 07:28:54;;;;;;;16.08;6.65;;;3.70;99.90;;;3.34;96.60;100855.16;5204035;28;20064;-69
2021/12/06 07:31:27;;;;;;;10.85;6.15;;;3.70;99.90;;;3.40;96.19;100845.25;5204548;28;20418;-70
2021/12/06 07:33:59;;;;;;;13.73;5.20;;;3.70;99.90;;;3.43;96.19;100837.69;5204419;28;20052;-70
2021/12/06 07:36:31;;;;;;;13.07;5.28;;;3.70;99.90;;;3.48;95.79;100835.41;5204640;28;20561;-68
2021/12/06 07:39:04;;;;;;;13.82;6.55;;;3.70;99.90;;;3.50;95.85;100837.28;5205937;28;20484;-69
2021/12/06 07:41:36;;;;;;;12.23;5.15;;;3.70;99.90;;;3.48;95.66;100836.31;5208133;28;20053;-70
2021/12/06 07:44:09;;;;;;;14.30;6.03;;;3.70;99.90;;;3.50;95.70;100842.44;5207891;28;20049;-69
2021/12/06 07:46:41;;;;;;;11.93;6.65;;;3.70;99.90;;;3.54;95.80;100846.13;5208086;28;20409;-68
2021/12/06 07:49:13;;;;;;;10.73;5.72;;;3.80;99.90;;;3.52;96.06;100853.75;5208082;28;20422;-69
2021/12/06 07:51:46;;;;;;;13.82;6.35;;;3.80;99.90;;;3.55;96.26;100847.91;5207858;28;20045;-69
2021/12/06 07:54:18;;;;;;;13.68;5.20;;;3.80;99.90;;;3.63;96.60;100854.41;5207571;28;20067;-69
2021/12/06 07:56:50;;;;;;;12.13;5.28;;;3.80;99.90;;;3.71;96.39;100854.91;5207890;28;20053;-70
2021/12/06 07:59:23;;;;;;;12.85;5.70;;;3.80;99.90;;;3.82;95.98;100859.06;5207486;28;20065;-70
2021/12/06 08:01:55;;;;;;;13.15;4.90;;;3.90;99.90;;;3.90;95.69;100855.25;5207759;28;20049;-70
2021/12/06 08:04:27;;;;;;;10.70;4.93;;;4.00;99.90;;;3.93;95.51;100868.34;5207799;28;20071;-71
2021/12/06 08:07:00;;;;;;;12.10;5.63;;;4.10;99.90;;;3.95;95.03;100873.59;5207653;28;20471;-71
2021/12/06 08:09:32;;;;;;;14.00;5.80;;;4.10;99.90;;;3.95;95.04;100865.88;5207452;28;20045;-70
2021/12/06 08:12:04;;;;;;;10.93;5.90;;;4.10;99.90;;;3.95;94.77;100877.06;5207442;28;20064;-71
2021/12/06 08:14:38;;;;;;;11.80;5.85;;;4.10;99.90;;;3.90;94.69;100873.31;5207371;28;20049;-76
2021/12/06 08:17:10;;;;;;;13.45;7.78;;;4.10;99.90;;;3.89;94.86;100875.81;5207445;28;20482;-76
2021/12/06 08:19:42;;;;;;;13.70;6.85;;;4.10;99.90;;;3.94;95.19;100889.88;5207049;28;20056;-76
2021/12/06 08:22:14;;;;;;;10.60;5.53;;;4.10;99.90;;;3.96;94.95;100880.53;5207261;28;20057;-75
2021/12/06 08:24:46;;;;;;;15.07;6.35;;;4.20;99.90;;;3.98;94.94;100878.97;5207002;28;20055;-76
2021/12/06 08:27:18;;;;;;;14.05;6.47;;;4.10;99.90;;;3.97;94.82;100879.75;5206546;28;20052;-76
2021/12/06 08:29:51;;;;;;;12.02;6.07;;;4.20;99.90;;;3.95;94.49;100878.75;5205645;28;20578;-76
2021/12/06 08:32:24;;;;;;;12.40;5.55;;;4.10;99.90;;;3.94;94.51;100880.44;5207193;28;20569;-76
2021/12/06 08:34:56;;;;;;;11.35;6.00;;;4.20;99.90;;;3.92;94.56;100886.31;5206982;28;20041;-76
2021/12/06 08:37:28;;;;;;;13.55;5.95;;;4.20;99.90;;;3.89;94.16;100886.13;5203775;28;20052;-76
2021/12/06 08:40:00;;;;;;;15.82;5.40;;;4.10;99.90;;;3.88;94.20;100880.06;5206891;28;20083;-76
2021/12/06 08:42:32;;;;;;;10.55;5.53;;;4.10;99.90;;;3.89;94.23;100883.53;5207075;28;20045;-76
2021/12/06 08:45:06;;;;;;;14.30;5.40;;;4.10;99.90;;;3.87;93.96;100886.03;5207050;28;20049;-77
2021/12/06 08:47:40;;;;;;;15.60;6.40;;;4.10;99.90;;;3.84;93.92;100878.06;5207066;28;20052;-75
2021/12/06 08:50:19;;;;;;;11.85;5.88;;;4.10;99.90;;;3.89;94.41;100881.84;5206683;28;20425;-76
2021/12/06 08:52:52;;;;;;;13.93;6.38;;;4.10;99.90;;;4.01;95.03;100887.78;5207167;28;20136;-76
2021/12/06 08:55:25;;;;;;;7.00;2.75;;;4.20;99.90;;;5.24;100.00;100879.63;5206083;28;20056;-70
2021/12/06 08:57:58;;;;;;;16.00;6.72;;;4.90;99.90;;;7.24;100.00;100882.63;5206151;28;20046;-70
2021/12/06 09:00:34;;;;;;;18.08;8.40;;;6.80;99.90;;;8.20;95.51;100887.19;5206726;28;20470;-76
2021/12/06 09:03:07;;;;;;;13.70;6.97;;;8.40;99.90;;;8.03;85.46;100890.72;5207008;28;20492;-76
2021/12/06 09:05:43;;;;;;;13.07;6.43;;;8.60;99.90;;;7.35;81.09;100890.09;5206519;28;20046;-77
2021/12/06 09:08:16;;;;;;;12.75;6.22;;;8.20;99.90;;;6.75;81.61;100903.44;5207149;28;20378;-77
2021/12/06 09:10:51;;;;;;;12.07;5.93;;;7.50;99.90;;;6.23;82.74;100903.28;5206763;28;20136;-77
2021/12/06 09:13:26;;;;;;;15.38;7.22;;;7.00;99.90;;;5.84;83.76;100904.56;5206960;28;20045;-76
2021/12/06 09:16:04;;;;;;;13.80;6.13;;;6.50;99.90;;;5.49;84.84;100897.44;5206726;28;20456;-77
2021/12/06 09:18:38;;;;;;;15.15;6.40;;;6.10;99.90;;;5.26;85.46;100903.84;5207577;28;20280;-75
2021/12/06 09:21:15;;;;;;;9.35;3.88;;;5.80;99.90;;;5.32;91.06;100909.38;5209019;28;20041;-71
2021/12/06 09:23:48;;;;;;;14.40;4.93;;;5.60;99.90;;;7.21;100.00;100892.81;5206438;28;20060;-69
2021/12/06 09:26:20;;;;;;;17.73;6.20;;;7.00;99.90;;;8.39;89.63;100896.72;5206223;28;20051;-71
2021/12/06 09:28:52;;;;;;;18.33;7.75;;;8.50;99.90;;;9.17;79.26;100892.34;5206817;28;20049;-78
2021/12/06 09:31:26;;;;;;;15.73;7.30;;;9.60;99.90;;;8.76;73.52;100899.25;5208256;28;20624;-76
2021/12/06 09:33:58;;;;;;;17.15;7.88;;;9.50;99.90;;;8.21;75.36;100891.56;5208063;28;20065;-79
2021/12/06 09:36:32;;;;;;;14.75;7.15;;;9.00;99.90;;;7.49;73.69;100889.88;5210746;28;20109;-78
2021/12/06 09:39:06;;;;;;;14.88;6.72;;;8.30;99.90;;;6.79;75.48;100893.34;5210104;28;20057;-80
2021/12/06 09:41:38;;;;;;;14.73;7.15;;;7.60;99.90;;;6.34;77.64;100894.41;5210378;28;20069;-79
2021/12/06 09:44:11;;;;;;;14.20;6.43;;;7.00;99.90;;;6.07;79.15;100898.09;5210358;28;20128;-80
2021/12/06 09:46:45;;;;;;;14.27;7.03;;;6.60;99.90;;;5.88;80.48;100898.75;5211125;28;20068;-80
2021/12/06 09:49:22;;;;;;;15.95;6.78;;;6.30;99.90;;;5.73;81.64;100894.50;5210622;28;20073;-81
2021/12/06 09:52:03;;;;;;;13.55;6.72;;;6.10;99.90;;;5.69;82.16;100894.25;5210486;28;20053;-79
2021/12/06 09:54:40;;;;;;;11.90;6.70;;;5.90;99.90;;;5.62;82.87;100885.28;5211321;28;20045;-80
2021/12/06 09:57:13;;;;;;;15.02;7.47;;;5.80;99.90;;;5.57;83.51;100881.53;5210677;28;20415;-78
2021/12/06 09:59:45;;;;;;;14.93;7.03;;;5.80;99.90;;;5.56;83.99;100884.03;5210632;28;20049;-79
2021/12/06 10:02:21;;;;;;;18.30;7.30;;;5.70;99.90;;;5.57;84.74;100889.28;5211048;28;20105;-79
2021/12/06 10:04:55;;;;;;;17.65;6.82;;;5.70;99.90;;;5.56;84.69;100884.91;5210534;28;20042;-77
2021/12/06 10:07:28;;;;;;;19.50;7.82;;;5.70;99.90;;;5.61;85.83;100892.94;5209351;28;20045;-78
2021/12/06 10:10:01;;;;;;;14.40;6.70;;;5.70;99.90;;;5.64;85.64;100891.41;5209344;28;20041;-77
2021/12/06 10:12:33;;;;;;;15.80;6.68;;;5.70;99.90;;;5.70;85.90;100889.16;5210110;28;20045;-79
2021/12/06 10:15:07;;;;;;;17.20;7.53;;;5.70;99.90;;;5.71;85.97;100890.06;5211236;28;20076;-80
2021/12/06 10:17:41;;;;;;;16.27;6.70;;;5.80;99.90;;;5.82;85.83;100891.53;5212230;28;20041;-81
2021/12/06 10:20:13;;;;;;;17.83;6.63;;;5.90;99.90;;;5.94;86.39;100893.97;5211506;28;20057;-81
2021/12/06 10:22:47;;;;;;;20.83;7.50;;;5.90;99.90;;;6.03;85.66;100894.44;5211572;28;20072;-79
2021/12/06 10:25:20;;;;;;;13.27;6.18;;;6.00;99.90;;;6.03;85.35;100897.03;5211366;28;20050;-80
2021/12/06 10:27:54;;;;;;;14.32;6.43;;;6.00;99.90;;;6.05;85.12;100898.00;5211198;28;20056;-81
2021/12/06 10:30:27;;;;;;;13.52;5.90;;;6.10;99.90;;;6.11;84.89;100893.16;5212006;28;20053;-80
2021/12/06 10:33:07;;;;;;;14.65;6.68;;;6.10;99.90;;;6.20;84.80;100891.09;5212861;28;20055;-80
2021/12/06 10:35:41;;;;;;;15.98;7.75;;;6.20;99.90;;;6.28;84.52;100890.59;5212494;28;20080;-81
2021/12/06 10:38:20;;;;;;;16.83;7.00;;;6.20;99.90;;;6.40;84.90;100888.66;5211563;28;20049;-81
2021/12/06 10:40:58;;;;;;;16.33;6.78;;;6.30;99.90;;;6.50;84.51;100889.22;5210135;28;20049;-76
2021/12/06 10:43:32;;;;;;;18.95;7.10;;;6.40;99.90;;;6.59;84.16;100881.06;5206905;28;20479;-74
2021/12/06 10:46:07;;;;;;;14.82;6.45;;;6.50;99.90;;;6.63;83.52;100880.38;5205751;28;20053;-72
2021/12/06 10:48:40;;;;;;;17.85;6.68;;;6.60;99.90;;;6.73;83.16;100874.88;5205116;28;20041;-73
2021/12/06 10:51:16;;;;;;;14.23;6.65;;;6.60;99.90;;;6.78;82.59;100872.50;5205119;28;20339;-73
2021/12/06 10:53:59;;;;;;;15.68;6.22;;;6.70;99.90;;;6.78;81.83;100870.81;5205444;28;20060;-75
2021/12/06 10:56:41;;;;;;;14.30;6.60;;;6.70;99.90;;;6.84;81.90;100864.16;5205385;28;20144;-72